Time;durP1;ratioP1;P1;durP2;ratioP2;P2;SDS_P1;SDS_P2;PMS_P1;PMS_P2;Temp;Humidity;BMP_temperature;BMP_pressure;BME280_temperature;BME280_humidity;BME280_pressure;Samples;Min_cycle;Max_cycle;Signal;HPM_P1;HPM_P2
2022/06/15 00:01:14;;;;;;;;;;;;;;;;;;5092269;28;992;-73
2022/06/15 00:03:41;;;;;;;;;;;;;;;;;;5092116;28;1051;-74
2022/06/15 00:06:08;;;;;;;;;;;;;;;;;;5092114;28;759;-73
2022/06/15 00:08:34;;;;;;;;;;;;;;;;;;5073288;28;1375;-74
2022/06/15 00:11:04;;;;;;;;;;;;;;;;;;5091766;28;1981;-74
2022/06/15 00:13:30;;;;;;;;;;;;;;;;;;5073822;28;1163;-74
2022/06/15 00:15:56;;;;;;;;;;;;;;;;;;5091792;28;873;-74
2022/06/15 00:18:22;;;;;;;;;;;;;;;;;;5091558;28;1270;-74
2022/06/15 00:20:50;;;;;;;;;;;;;;;;;;5091534;28;1067;-74
2022/06/15 00:23:16;;;;;;;;;;;;;;;;;;5091602;28;1119;-73
2022/06/15 00:25:43;;;;;;;;;;;;;;;;;;5073463;28;1247;-73
2022/06/15 00:28:09;;;;;;;;;;;;;;;;;;5091122;28;1317;-74
2022/06/15 00:30:35;;;;;;;;;;;;;;;;;;5091839;28;1979;-74
2022/06/15 00:33:01;;;;;;;;;;;;;;;;;;5073212;28;1048;-74
2022/06/15 00:35:28;;;;;;;;;;;;;;;;;;5073245;28;1191;-74
2022/06/15 00:37:56;;;;;;;;;;;;;;;;;;5073099;28;1810;-73
2022/06/15 00:40:22;;;;;;;;;;;;;;;;;;5073410;28;1594;-74
2022/06/15 00:42:48;;;;;;;;;;;;;;;;;;5091350;28;1119;-73
2022/06/15 00:45:14;;;;;;;;;;;;;;;;;;5073256;28;1294;-74
2022/06/15 00:47:41;;;;;;;;;;;;;;;;;;5091106;28;1357;-73
2022/06/15 00:50:08;;;;;;;;;;;;;;;;;;5091272;28;1922;-74
2022/06/15 00:52:35;;;;;;;;;;;;;;;;;;5091179;28;1075;-72
2022/06/15 00:55:05;;;;;;;;;;;;;;;;;;5073161;28;972;-73
2022/06/15 00:57:31;;;;;;;;;;;;;;;;;;5073020;28;1426;-74
2022/06/15 00:59:58;;;;;;;;;;;;;;;;;;5091031;28;1330;-74
2022/06/15 01:02:25;;;;;;;;;;;;;;;;;;5072951;28;1425;-74
2022/06/15 01:04:52;;;;;;;;;;;;;;;;;;5091130;28;1118;-74
2022/06/15 01:07:25;;;;;;;;;;;;;;;;;;5072907;28;1159;-74
2022/06/15 01:09:52;;;;;;;;;;;;;;;;;;5090660;28;1979;-73
2022/06/15 01:12:21;;;;;;;;;;;;;;;;;;5072957;28;1332;-73
2022/06/15 01:15:00;;;;;;;;;;;;;;;;;;5090964;28;1122;-74
2022/06/15 01:17:31;;;;;;;;;;;;;;;;;;5090764;28;850;-74
2022/06/15 01:20:21;;;;;;;;;;;;;;;;;;5071813;28;1419;-73
2022/06/15 01:23:08;;;;;;;;;;;;;;;;;;5047901;28;1177;-74
2022/06/15 01:25:38;;;;;;;;;;;;;;;;;;5072485;28;1416;-74
2022/06/15 01:28:34;;;;;;;;;;;;;;;;;;5072105;28;1393;-73
2022/06/15 01:31:04;;;;;;;;;;;;;;;;;;4988916;28;1939;-74
2022/06/15 01:33:33;;;;;;;;;;;;;;;;;;5051226;28;1118;-73
2022/06/15 01:36:04;;;;;;;;;;;;;;;;;;5072887;28;1243;-73
2022/06/15 01:38:32;;;;;;;;;;;;;;;;;;5072533;28;1307;-71
2022/06/15 01:41:00;;;;;;;;;;;;;;;;;;5090671;28;1035;-73
2022/06/15 01:43:28;;;;;;;;;;;;;;;;;;5072711;28;1365;-73
2022/06/15 01:45:54;;;;;;;;;;;;;;;;;;5072309;28;1183;-74
2022/06/15 01:48:22;;;;;;;;;;;;;;;;;;5090342;28;1280;-74
2022/06/15 01:50:48;;;;;;;;;;;;;;;;;;5090501;28;1984;-73
2022/06/15 01:53:18;;;;;;;;;;;;;;;;;;5072585;28;1235;-73
2022/06/15 01:55:46;;;;;;;;;;;;;;;;;;5072400;28;1193;-74
2022/06/15 01:58:13;;;;;;;;;;;;;;;;;;5071983;28;1321;-73
2022/06/15 02:00:39;;;;;;;;;;;;;;;;;;5072440;28;1467;-74
2022/06/15 02:03:07;;;;;;;;;;;;;;;;;;5072264;28;1317;-73
2022/06/15 02:05:37;;;;;;;;;;;;;;;;;;5072448;28;1131;-73
2022/06/15 02:08:04;;;;;;;;;;;;;;;;;;5071758;28;1324;-73
2022/06/15 02:10:32;;;;;;;;;;;;;;;;;;5090369;28;1906;-73
2022/06/15 02:13:01;;;;;;;;;;;;;;;;;;5072335;28;1318;-73
2022/06/15 02:15:28;;;;;;;;;;;;;;;;;;5071994;28;1554;-73
2022/06/15 02:17:57;;;;;;;;;;;;;;;;;;5089582;28;1321;-73
2022/06/15 02:20:24;;;;;;;;;;;;;;;;;;5072311;28;1278;-74
2022/06/15 02:22:52;;;;;;;;;;;;;;;;;;5072118;28;1471;-74
2022/06/15 02:25:19;;;;;;;;;;;;;;;;;;5072158;28;1475;-73
2022/06/15 02:27:46;;;;;;;;;;;;;;;;;;5071825;28;1487;-74
2022/06/15 02:30:14;;;;;;;;;;;;;;;;;;5072313;28;2045;-73
2022/06/15 02:32:41;;;;;;;;;;;;;;;;;;5074760;28;1555;-72
2022/06/15 02:35:08;;;;;;;;;;;;;;;;;;5075734;28;1191;-74
2022/06/15 02:37:35;;;;;;;;;;;;;;;;;;5093594;28;1381;-72
2022/06/15 02:40:03;;;;;;;;;;;;;;;;;;5075534;28;1006;-74
2022/06/15 02:42:36;;;;;;;;;;;;;;;;;;5076005;28;935;-73
2022/06/15 02:45:09;;;;;;;;;;;;;;;;;;5075781;28;1329;-73
2022/06/15 02:47:36;;;;;;;;;;;;;;;;;;5073278;28;1830;-73
2022/06/15 02:50:03;;;;;;;;;;;;;;;;;;5092822;28;1971;-73
2022/06/15 02:52:32;;;;;;;;;;;;;;;;;;5088050;28;1543;-73
2022/06/15 02:54:58;;;;;;;;;;;;;;;;;;5091384;28;1314;-73
2022/06/15 02:57:28;;;;;;;;;;;;;;;;;;5076557;28;1288;-72
2022/06/15 02:59:55;;;;;;;;;;;;;;;;;;5075411;28;1450;-72
2022/06/15 03:02:27;;;;;;;;;;;;;;;;;;5075018;28;1644;-73
2022/06/15 03:04:54;;;;;;;;;;;;;;;;;;5073457;28;2083;-74
2022/06/15 03:07:22;;;;;;;;;;;;;;;;;;5076002;28;1218;-74
2022/06/15 03:09:49;;;;;;;;;;;;;;;;;;5078198;28;2043;-73
2022/06/15 03:12:18;;;;;;;;;;;;;;;;;;5074907;28;1975;-74
2022/06/15 03:14:47;;;;;;;;;;;;;;;;;;5075051;28;1183;-74
2022/06/15 03:17:16;;;;;;;;;;;;;;;;;;5074632;28;1334;-74
2022/06/15 03:19:55;;;;;;;;;;;;;;;;;;5074746;28;1418;-73
2022/06/15 03:22:22;;;;;;;;;;;;;;;;;;5074403;28;1505;-74
2022/06/15 03:24:55;;;;;;;;;;;;;;;;;;5074811;28;1192;-74
2022/06/15 03:27:22;;;;;;;;;;;;;;;;;;5074631;28;1280;-73
2022/06/15 03:29:53;;;;;;;;;;;;;;;;;;5081482;22;3610;-69
2022/06/15 03:32:23;;;;;;;;;;;;;;;;;;5014553;28;1918;-71
2022/06/15 03:34:55;;;;;;;;;;;;;;;;;;5014790;28;1287;-71
2022/06/15 03:37:21;;;;;;;;;;;;;;;;;;5014614;28;1425;-71
2022/06/15 03:39:50;;;;;;;;;;;;;;;;;;5014564;28;1537;-71
2022/06/15 03:42:19;;;;;;;;;;;;;;;;;;5014808;28;1336;-71
2022/06/15 03:44:46;;;;;;;;;;;;;;;;;;5013996;28;1337;-71
2022/06/15 03:47:16;;;;;;;;;;;;;;;;;;5014553;28;1413;-71
2022/06/15 03:49:43;;;;;;;;;;;;;;;;;;5013237;28;1642;-70
2022/06/15 03:52:10;;;;;;;;;;;;;;;;;;5020684;28;1918;-70
2022/06/15 03:54:36;;;;;;;;;;;;;;;;;;5031102;28;1342;-71
2022/06/15 03:57:04;;;;;;;;;;;;;;;;;;5014249;28;1502;-71
2022/06/15 03:59:34;;;;;;;;;;;;;;;;;;5014229;28;1376;-71
2022/06/15 04:02:14;;;;;;;;;;;;;;;;;;5014165;28;1238;-71
2022/06/15 04:04:41;;;;;;;;;;;;;;;;;;5021753;28;1376;-71
2022/06/15 04:08:34;;;;;;;;;;;;;;;;;;5023245;28;1443;-71
2022/06/15 04:09:57;;;;;;;;;;;;;;;;;;5015857;28;1366;-71
2022/06/15 04:12:24;;;;;;;;;;;;;;;;;;5013017;28;1926;-70
2022/06/15 04:14:50;;;;;;;;;;;;;;;;;;5020114;28;1546;-71
2022/06/15 04:17:34;;;;;;;;;;;;;;;;;;5027834;28;1139;-71
2022/06/15 04:22:54;;;;;;;;;;;;;;;;;;5022564;28;1464;-72
2022/06/15 04:25:20;;;;;;;;;;;;;;;;;;5024786;28;1566;-71
2022/06/15 04:27:46;;;;;;;;;;;;;;;;;;5024208;28;1526;-71
2022/06/15 04:30:14;;;;;;;;;;;;;;;;;;5011856;28;1397;-71
2022/06/15 04:32:48;;;;;;;;;;;;;;;;;;5008289;28;1694;-71
2022/06/15 04:35:15;;;;;;;;;;;;;;;;;;5016187;28;1566;-71
2022/06/15 04:37:42;;;;;;;;;;;;;;;;;;5030881;28;1357;-69
2022/06/15 04:40:23;;;;;;;;;;;;;;;;;;5027412;28;1405;-70
2022/06/15 04:42:49;;;;;;;;;;;;;;;;;;5037717;28;1481;-71
2022/06/15 04:45:16;;;;;;;;;;;;;;;;;;5038516;28;1118;-71
2022/06/15 04:47:58;;;;;;;;;;;;;;;;;;5018991;28;1419;-72
2022/06/15 04:50:25;;;;;;;;;;;;;;;;;;5026469;28;1384;-72
2022/06/15 04:52:53;;;;;;;;;;;;;;;;;;5022093;28;1514;-71
2022/06/15 04:55:20;;;;;;;;;;;;;;;;;;5024861;28;1241;-71
2022/06/15 04:57:47;;;;;;;;;;;;;;;;;;5016784;28;1431;-73
2022/06/15 05:00:15;;;;;;;;;;;;;;;;;;5025656;28;1692;-73
2022/06/15 05:02:41;;;;;;;;;;;;;;;;;;5030201;28;1363;-73
2022/06/15 05:05:10;;;;;;;;;;;;;;;;;;5013078;28;1545;-71
2022/06/15 05:07:37;;;;;;;;;;;;;;;;;;5016482;28;1512;-72
2022/06/15 05:10:04;;;;;;;;;;;;;;;;;;5027228;28;1435;-71
2022/06/15 05:12:32;;;;;;;;;;;;;;;;;;5025058;28;1922;-71
2022/06/15 05:14:58;;;;;;;;;;;;;;;;;;5032891;28;1345;-71
2022/06/15 05:17:25;;;;;;;;;;;;;;;;;;5032807;28;1463;-71
2022/06/15 05:19:52;;;;;;;;;;;;;;;;;;5032784;28;1420;-71
2022/06/15 05:22:19;;;;;;;;;;;;;;;;;;5032854;28;1588;-71
2022/06/15 05:24:46;;;;;;;;;;;;;;;;;;5031065;28;1530;-70
2022/06/15 05:27:16;;;;;;;;;;;;;;;;;;5010785;28;1362;-71
2022/06/15 05:29:43;;;;;;;;;;;;;;;;;;5020300;28;1491;-72
2022/06/15 05:32:15;;;;;;;;;;;;;;;;;;5009043;28;1942;-72
2022/06/15 05:34:43;;;;;;;;;;;;;;;;;;5014926;28;1350;-71
2022/06/15 05:37:10;;;;;;;;;;;;;;;;;;5009004;28;1460;-73
2022/06/15 05:39:39;;;;;;;;;;;;;;;;;;5040537;28;1393;-73
2022/06/15 05:42:05;;;;;;;;;;;;;;;;;;5024160;28;1114;-72
2022/06/15 05:44:39;;;;;;;;;;;;;;;;;;5032608;28;1487;-73
2022/06/15 05:47:07;;;;;;;;;;;;;;;;;;5041045;28;1399;-73
2022/06/15 05:49:38;;;;;;;;;;;;;;;;;;5016419;28;1420;-73
2022/06/15 05:52:07;;;;;;;;;;;;;;;;;;5030563;28;1910;-73
2022/06/15 05:54:35;;;;;;;;;;;;;;;;;;5021325;28;1716;-73
2022/06/15 05:57:05;;;;;;;;;;;;;;;;;;5030098;28;997;-73
2022/06/15 05:59:31;;;;;;;;;;;;;;;;;;5024427;28;1410;-72
2022/06/15 06:01:57;;;;;;;;;;;;;;;;;;5030192;28;1433;-73
2022/06/15 06:04:24;;;;;;;;;;;;;;;;;;5043593;28;972;-73
2022/06/15 06:06:50;;;;;;;;;;;;;;;;;;5031201;28;1139;-73
2022/06/15 06:09:16;;;;;;;;;;;;;;;;;;5037468;28;1403;-73
2022/06/15 06:11:42;;;;;;;;;;;;;;;;;;5024583;28;1891;-73
2022/06/15 06:14:10;;;;;;;;;;;;;;;;;;5034556;28;1189;-73
2022/06/15 06:16:36;;;;;;;;;;;;;;;;;;5033530;28;1118;-74
2022/06/15 06:19:02;;;;;;;;;;;;;;;;;;5033755;28;1088;-73
2022/06/15 06:21:28;;;;;;;;;;;;;;;;;;5036440;28;1445;-73
2022/06/15 06:23:54;;;;;;;;;;;;;;;;;;5041483;28;1135;-73
2022/06/15 06:26:22;;;;;;;;;;;;;;;;;;5032594;28;1362;-72
2022/06/15 06:28:48;;;;;;;;;;;;;;;;;;5039987;28;1438;-73
2022/06/15 06:31:16;;;;;;;;;;;;;;;;;;5044621;28;1910;-71
2022/06/15 06:33:42;;;;;;;;;;;;;;;;;;5053393;28;1114;-71
2022/06/15 06:36:09;;;;;;;;;;;;;;;;;;5034241;28;1461;-69
2022/06/15 06:38:35;;;;;;;;;;;;;;;;;;5045210;28;1126;-70
2022/06/15 06:41:01;;;;;;;;;;;;;;;;;;5035750;28;1401;-70
2022/06/15 06:43:27;;;;;;;;;;;;;;;;;;5039453;28;1374;-71
2022/06/15 06:45:53;;;;;;;;;;;;;;;;;;5020413;28;1474;-70
2022/06/15 06:48:21;;;;;;;;;;;;;;;;;;5042954;28;1386;-71
2022/06/15 06:50:47;;;;;;;;;;;;;;;;;;5044774;28;1469;-71
2022/06/15 06:53:14;;;;;;;;;;;;;;;;;;5032843;28;1920;-70
2022/06/15 06:55:40;;;;;;;;;;;;;;;;;;5036504;28;1749;-70
2022/06/15 06:58:06;;;;;;;;;;;;;;;;;;5051880;28;1225;-71
2022/06/15 07:00:33;;;;;;;;;;;;;;;;;;5040810;28;1389;-72
2022/06/15 07:03:00;;;;;;;;;;;;;;;;;;5028785;28;1398;-71
2022/06/15 07:05:27;;;;;;;;;;;;;;;;;;5039511;28;1213;-71
2022/06/15 07:07:53;;;;;;;;;;;;;;;;;;5032773;28;925;-71
2022/06/15 07:10:20;;;;;;;;;;;;;;;;;;5036367;28;1363;-72
2022/06/15 07:12:46;;;;;;;;;;;;;;;;;;5042087;28;1987;-71
2022/06/15 07:15:13;;;;;;;;;;;;;;;;;;5052850;28;1177;-70
2022/06/15 07:17:40;;;;;;;;;;;;;;;;;;5042698;28;1532;-71
2022/06/15 07:20:07;;;;;;;;;;;;;;;;;;5042884;28;1484;-72
2022/06/15 07:22:35;;;;;;;;;;;;;;;;;;5045960;28;1398;-72
2022/06/15 07:25:01;;;;;;;;;;;;;;;;;;5044064;28;1145;-71
2022/06/15 07:27:27;;;;;;;;;;;;;;;;;;5032836;28;1402;-72
2022/06/15 07:29:55;;;;;;;;;;;;;;;;;;5039926;28;1496;-71
2022/06/15 07:32:22;;;;;;;;;;;;;;;;;;5043776;28;1962;-72
2022/06/15 07:34:48;;;;;;;;;;;;;;;;;;5026372;28;1408;-71
2022/06/15 07:37:14;;;;;;;;;;;;;;;;;;5041447;28;1414;-71
2022/06/15 07:39:42;;;;;;;;;;;;;;;;;;5014466;28;1441;-72
2022/06/15 07:42:09;;;;;;;;;;;;;;;;;;5038151;28;1463;-72
2022/06/15 07:44:36;;;;;;;;;;;;;;;;;;5052011;28;1134;-72
2022/06/15 07:49:55;;;;;;;;;;;;;;;;;;4997070;28;1588;-73
2022/06/15 07:52:22;;;;;;;;;;;;;;;;;;5051697;28;1910;-72
2022/06/15 07:54:49;;;;;;;;;;;;;;;;;;5051828;28;1064;-71
2022/06/15 07:57:16;;;;;;;;;;;;;;;;;;5051583;28;1122;-72
2022/06/15 07:59:42;;;;;;;;;;;;;;;;;;5039403;28;1422;-71
2022/06/15 08:02:08;;;;;;;;;;;;;;;;;;5025350;28;1475;-72
2022/06/15 08:04:34;;;;;;;;;;;;;;;;;;5040083;28;1189;-72
2022/06/15 08:07:01;;;;;;;;;;;;;;;;;;5031568;28;1072;-71
2022/06/15 08:09:27;;;;;;;;;;;;;;;;;;5034425;28;1494;-71
2022/06/15 08:12:14;;;;;;;;;;;;;;;;;;5042288;28;1914;-73
2022/06/15 08:14:41;;;;;;;;;;;;;;;;;;5018106;28;1206;-73
2022/06/15 08:17:08;;;;;;;;;;;;;;;;;;5051268;28;1151;-73
2022/06/15 08:19:35;;;;;;;;;;;;;;;;;;5037557;28;1922;-73
2022/06/15 08:22:01;;;;;;;;;;;;;;;;;;5036993;28;1169;-73
2022/06/15 08:24:27;;;;;;;;;;;;;;;;;;5033427;28;1508;-72
2022/06/15 08:26:55;;;;;;;;;;;;;;;;;;5019436;28;1353;-72
2022/06/15 08:29:21;;;;;;;;;;;;;;;;;;5030380;28;1386;-71
2022/06/15 08:31:48;;;;;;;;;;;;;;;;;;5031936;28;1910;-73
2022/06/15 08:34:14;;;;;;;;;;;;;;;;;;5026253;28;1430;-72
2022/06/15 08:36:40;;;;;;;;;;;;;;;;;;5038419;28;1142;-72
2022/06/15 08:39:06;;;;;;;;;;;;;;;;;;5040170;28;1426;-73
2022/06/15 08:41:34;;;;;;;;;;;;;;;;;;5024949;28;1385;-73
2022/06/15 08:44:04;;;;;;;;;;;;;;;;;;5042292;28;1206;-73
2022/06/15 08:46:33;;;;;;;;;;;;;;;;;;5050940;28;1064;-73
2022/06/15 08:49:05;;;;;;;;;;;;;;;;;;5024931;28;2186;-73
2022/06/15 08:51:33;;;;;;;;;;;;;;;;;;5029041;28;1417;-73
2022/06/15 08:53:59;;;;;;;;;;;;;;;;;;5030130;28;1910;-73
2022/06/15 08:56:27;;;;;;;;;;;;;;;;;;5039976;28;1510;-73
2022/06/15 08:58:53;;;;;;;;;;;;;;;;;;5030208;28;1400;-71
2022/06/15 09:01:26;;;;;;;;;;;;;;;;;;5045794;28;1388;-73
2022/06/15 09:03:54;;;;;;;;;;;;;;;;;;5030681;28;1072;-73
2022/06/15 09:06:24;;;;;;;;;;;;;;;;;;5031144;28;1381;-73
2022/06/15 09:08:54;;;;;;;;;;;;;;;;;;5037151;28;1146;-73
2022/06/15 09:11:22;;;;;;;;;;;;;;;;;;5030784;28;1330;-73
2022/06/15 09:13:54;;;;;;;;;;;;;;;;;;5028917;28;1910;-73
2022/06/15 09:16:25;;;;;;;;;;;;;;;;;;5035948;28;1421;-74
2022/06/15 09:18:52;;;;;;;;;;;;;;;;;;5033534;28;1502;-73
2022/06/15 09:21:18;;;;;;;;;;;;;;;;;;5038281;28;1369;-74
2022/06/15 09:23:45;;;;;;;;;;;;;;;;;;5030491;28;1001;-73
2022/06/15 09:26:13;;;;;;;;;;;;;;;;;;5032019;28;1398;-74
2022/06/15 09:28:40;;;;;;;;;;;;;;;;;;5041149;28;1413;-74
2022/06/15 09:31:08;;;;;;;;;;;;;;;;;;5036900;28;1656;-74
2022/06/15 09:33:37;;;;;;;;;;;;;;;;;;5039778;28;1914;-74
2022/06/15 09:36:05;;;;;;;;;;;;;;;;;;5038413;28;1473;-73
2022/06/15 09:38:32;;;;;;;;;;;;;;;;;;5023352;28;1289;-74
2022/06/15 09:40:58;;;;;;;;;;;;;;;;;;5032346;28;1960;-74
2022/06/15 09:43:27;;;;;;;;;;;;;;;;;;5022700;28;1431;-74
2022/06/15 09:45:55;;;;;;;;;;;;;;;;;;5044190;28;1435;-74
2022/06/15 09:48:21;;;;;;;;;;;;;;;;;;5016577;28;1154;-75
2022/06/15 09:50:52;;;;;;;;;;;;;;;;;;5033871;28;1418;-72
2022/06/15 09:53:22;;;;;;;;;;;;;;;;;;5043640;28;1922;-74
2022/06/15 09:55:51;;;;;;;;;;;;;;;;;;5032905;28;1401;-72
2022/06/15 09:58:18;;;;;;;;;;;;;;;;;;5020215;28;1358;-72
2022/06/15 10:00:45;;;;;;;;;;;;;;;;;;5033188;28;1439;-73
2022/06/15 10:03:13;;;;;;;;;;;;;;;;;;5032506;28;1119;-73
2022/06/15 10:05:40;;;;;;;;;;;;;;;;;;5039780;28;1347;-74
2022/06/15 10:08:09;;;;;;;;;;;;;;;;;;5040861;28;1179;-72
2022/06/15 10:10:37;;;;;;;;;;;;;;;;;;5040673;28;1427;-74
2022/06/15 10:13:04;;;;;;;;;;;;;;;;;;5043793;28;1918;-74
2022/06/15 10:15:35;;;;;;;;;;;;;;;;;;5053825;28;1001;-73
2022/06/15 10:18:03;;;;;;;;;;;;;;;;;;5041645;28;1399;-73
2022/06/15 10:20:31;;;;;;;;;;;;;;;;;;5038748;28;1405;-73
2022/06/15 10:22:58;;;;;;;;;;;;;;;;;;5035168;28;1189;-74
2022/06/15 10:25:34;;;;;;;;;;;;;;;;;;5023365;28;1283;-74
2022/06/15 10:28:13;;;;;;;;;;;;;;;;;;5030650;28;1426;-74
2022/06/15 10:30:41;;;;;;;;;;;;;;;;;;5034898;28;1451;-73
2022/06/15 10:33:13;;;;;;;;;;;;;;;;;;5034324;28;1938;-73
2022/06/15 10:35:40;;;;;;;;;;;;;;;;;;5042825;28;1138;-74
2022/06/15 10:38:09;;;;;;;;;;;;;;;;;;5039818;28;1405;-72
2022/06/15 10:40:36;;;;;;;;;;;;;;;;;;5040430;28;1487;-74
2022/06/15 10:43:03;;;;;;;;;;;;;;;;;;5048083;28;1200;-74
2022/06/15 10:45:32;;;;;;;;;;;;;;;;;;5047939;28;1511;-74
2022/06/15 10:47:59;;;;;;;;;;;;;;;;;;5034256;28;1557;-73
2022/06/15 10:50:27;;;;;;;;;;;;;;;;;;5035010;28;1643;-74
2022/06/15 10:52:55;;;;;;;;;;;;;;;;;;5040753;28;1981;-73
2022/06/15 11:04:03;;;;;;;;;;;;;;;;;;4969298;28;1506;-73
2022/06/15 11:06:35;;;;;;;;;;;;;;;;;;5019874;28;1391;-72
2022/06/15 11:09:01;;;;;;;;;;;;;;;;;;5045443;28;1402;-72
2022/06/15 11:11:27;;;;;;;;;;;;;;;;;;5043194;28;1430;-72
2022/06/15 11:13:56;;;;;;;;;;;;;;;;;;5036701;28;1914;-72
2022/06/15 11:19:13;;;;;;;;;;;;;;;;;;5034857;28;1095;-73
2022/06/15 11:21:40;;;;;;;;;;;;;;;;;;5014702;28;1401;-73
2022/06/15 11:24:07;;;;;;;;;;;;;;;;;;5039885;28;1379;-72
2022/06/15 11:29:25;;;;;;;;;;;;;;;;;;5046759;28;1324;-72
2022/06/15 11:31:51;;;;;;;;;;;;;;;;;;5033893;28;1174;-71
2022/06/15 11:34:19;;;;;;;;;;;;;;;;;;5042353;28;1978;-72
2022/06/15 11:36:47;;;;;;;;;;;;;;;;;;5014465;28;1681;-73
2022/06/15 11:39:14;;;;;;;;;;;;;;;;;;5036983;28;1433;-72
2022/06/15 11:41:44;;;;;;;;;;;;;;;;;;5042830;28;1437;-72
2022/06/15 11:44:12;;;;;;;;;;;;;;;;;;5040395;28;1225;-73
2022/06/15 11:46:43;;;;;;;;;;;;;;;;;;5013049;28;1398;-72
2022/06/15 11:49:14;;;;;;;;;;;;;;;;;;5017213;28;1589;-71
2022/06/15 11:51:43;;;;;;;;;;;;;;;;;;5022162;28;1391;-75
2022/06/15 11:54:12;;;;;;;;;;;;;;;;;;5043458;28;1911;-73
2022/06/15 11:56:40;;;;;;;;;;;;;;;;;;5051852;28;941;-74
2022/06/15 11:59:08;;;;;;;;;;;;;;;;;;5052004;28;1055;-74
2022/06/15 12:01:39;;;;;;;;;;;;;;;;;;5051937;28;1318;-73
2022/06/15 12:04:11;;;;;;;;;;;;;;;;;;5051154;28;953;-74
2022/06/15 12:06:38;;;;;;;;;;;;;;;;;;5051398;28;1063;-74
2022/06/15 12:09:06;;;;;;;;;;;;;;;;;;5051551;28;1084;-74
2022/06/15 12:14:17;;;;;;;;;;;;;;;;;;5018285;28;1930;-74
2022/06/15 12:16:43;;;;;;;;;;;;;;;;;;5051498;28;1071;-73
2022/06/15 12:19:12;;;;;;;;;;;;;;;;;;5051432;28;1116;-74
2022/06/15 12:21:39;;;;;;;;;;;;;;;;;;5051478;28;1367;-74
2022/06/15 12:24:08;;;;;;;;;;;;;;;;;;5051111;28;1275;-72
2022/06/15 12:26:37;;;;;;;;;;;;;;;;;;5051272;28;1127;-73
2022/06/15 12:29:04;;;;;;;;;;;;;;;;;;5051238;28;1025;-74
2022/06/15 12:31:33;;;;;;;;;;;;;;;;;;5050751;28;1395;-72
2022/06/15 12:34:00;;;;;;;;;;;;;;;;;;5051046;28;1949;-73
2022/06/15 12:36:28;;;;;;;;;;;;;;;;;;5051112;28;1111;-74
2022/06/15 12:38:58;;;;;;;;;;;;;;;;;;5051237;28;1067;-73
2022/06/15 12:44:12;;;;;;;;;;;;;;;;;;5050845;28;1032;-74
2022/06/15 12:46:38;;;;;;;;;;;;;;;;;;5050643;28;1083;-73
2022/06/15 12:49:06;;;;;;;;;;;;;;;;;;5030936;28;911;-74
2022/06/15 12:51:37;;;;;;;;;;;;;;;;;;5031105;28;1376;-74
2022/06/15 12:54:05;;;;;;;;;;;;;;;;;;5030839;28;1977;-73
2022/06/15 12:56:37;;;;;;;;;;;;;;;;;;5030799;28;1064;-73
2022/06/15 12:59:05;;;;;;;;;;;;;;;;;;5031109;28;945;-75
2022/06/15 13:01:33;;;;;;;;;;;;;;;;;;5030968;28;1405;-75
2022/06/15 13:04:03;;;;;;;;;;;;;;;;;;5030794;28;1092;-74
2022/06/15 13:06:30;;;;;;;;;;;;;;;;;;5030619;28;1060;-73
2022/06/15 13:09:05;;;;;;;;;;;;;;;;;;5030243;28;1472;-73
2022/06/15 13:11:32;;;;;;;;;;;;;;;;;;5011118;28;1435;-74
2022/06/15 13:14:10;;;;;;;;;;;;;;;;;;5010693;28;1910;-73
2022/06/15 13:16:37;;;;;;;;;;;;;;;;;;4993015;28;1153;-75
2022/06/15 13:19:05;;;;;;;;;;;;;;;;;;5010568;28;1116;-74
2022/06/15 13:21:49;;;;;;;;;;;;;;;;;;5014617;28;1586;-73
2022/06/15 13:24:16;;;;;;;;;;;;;;;;;;5025275;28;943;-73
2022/06/15 13:26:50;;;;;;;;;;;;;;;;;;5030016;28;1102;-73
2022/06/15 13:29:21;;;;;;;;;;;;;;;;;;5030491;28;1190;-74
2022/06/15 13:31:48;;;;;;;;;;;;;;;;;;5028663;28;1391;-73
2022/06/15 13:34:14;;;;;;;;;;;;;;;;;;5016085;28;1385;-75
2022/06/15 13:36:43;;;;;;;;;;;;;;;;;;5041281;28;1353;-74
2022/06/15 13:39:27;;;;;;;;;;;;;;;;;;5021519;28;1542;-74
2022/06/15 13:42:20;;;;;;;;;;;;;;;;;;5041761;28;1177;-73
2022/06/15 13:44:48;;;;;;;;;;;;;;;;;;5006388;28;1918;-74
2022/06/15 13:47:14;;;;;;;;;;;;;;;;;;5026024;28;1131;-74
2022/06/15 13:49:41;;;;;;;;;;;;;;;;;;5049746;28;1417;-74
2022/06/15 13:52:09;;;;;;;;;;;;;;;;;;5050003;28;976;-73
2022/06/15 13:54:48;;;;;;;;;;;;;;;;;;5035109;28;1405;-74
2022/06/15 13:57:17;;;;;;;;;;;;;;;;;;5033628;28;1454;-74
2022/06/15 13:59:46;;;;;;;;;;;;;;;;;;5030183;28;1261;-72
2022/06/15 14:02:13;;;;;;;;;;;;;;;;;;5028979;28;1429;-74
2022/06/15 14:04:43;;;;;;;;;;;;;;;;;;5036256;28;1981;-74
2022/06/15 14:07:14;;;;;;;;;;;;;;;;;;5031115;28;1418;-74
2022/06/15 14:09:43;;;;;;;;;;;;;;;;;;5037582;28;1323;-74
2022/06/15 14:12:24;;;;;;;;;;;;;;;;;;5036659;28;1399;-74
2022/06/15 14:15:06;;;;;;;;;;;;;;;;;;5029215;28;1173;-74
2022/06/15 14:17:37;;;;;;;;;;;;;;;;;;5034152;28;1457;-73
2022/06/15 14:20:04;;;;;;;;;;;;;;;;;;5041458;28;1358;-74
2022/06/15 14:22:39;;;;;;;;;;;;;;;;;;5050294;28;1181;-73
2022/06/15 14:25:07;;;;;;;;;;;;;;;;;;5052025;28;1910;-74
2022/06/15 14:27:35;;;;;;;;;;;;;;;;;;5040888;28;1377;-74
2022/06/15 14:30:02;;;;;;;;;;;;;;;;;;5038842;28;1411;-75
2022/06/15 14:32:29;;;;;;;;;;;;;;;;;;5048423;28;1394;-74
2022/06/15 14:35:00;;;;;;;;;;;;;;;;;;5042430;28;1115;-73
2022/06/15 14:37:27;;;;;;;;;;;;;;;;;;5042557;28;1362;-73
2022/06/15 14:39:54;;;;;;;;;;;;;;;;;;5051641;28;1423;-71
2022/06/15 14:42:21;;;;;;;;;;;;;;;;;;5036186;28;1236;-72
2022/06/15 14:44:48;;;;;;;;;;;;;;;;;;5033310;28;1973;-74
2022/06/15 14:47:15;;;;;;;;;;;;;;;;;;5030637;28;1593;-74
2022/06/15 14:49:46;;;;;;;;;;;;;;;;;;5033645;28;1852;-73
2022/06/15 14:52:14;;;;;;;;;;;;;;;;;;5030668;28;1417;-74
2022/06/15 14:54:40;;;;;;;;;;;;;;;;;;5032946;28;1151;-74
2022/06/15 14:57:06;;;;;;;;;;;;;;;;;;5040227;28;1410;-74
2022/06/15 14:59:41;;;;;;;;;;;;;;;;;;5038835;28;1476;-73
2022/06/15 15:02:09;;;;;;;;;;;;;;;;;;5049087;28;1186;-73
2022/06/15 15:04:37;;;;;;;;;;;;;;;;;;5039560;28;1922;-74
2022/06/15 15:08:05;;;;;;;;;;;;;;;;;;5041188;28;1158;-74
2022/06/15 15:09:52;;;;;;;;;;;;;;;;;;5032658;28;1252;-73
2022/06/15 15:12:21;;;;;;;;;;;;;;;;;;5036192;28;1386;-74
2022/06/15 15:14:50;;;;;;;;;;;;;;;;;;5042554;28;1157;-74
2022/06/15 15:17:18;;;;;;;;;;;;;;;;;;5012908;28;1166;-74
2022/06/15 15:19:45;;;;;;;;;;;;;;;;;;4995182;28;1345;-74
2022/06/15 15:22:11;;;;;;;;;;;;;;;;;;5025403;28;1533;-74
2022/06/15 15:24:38;;;;;;;;;;;;;;;;;;5044077;28;1918;-73
2022/06/15 15:27:09;;;;;;;;;;;;;;;;;;5040879;28;1449;-73
2022/06/15 15:35:18;;;;;;;;;;;;;;;;;;5032886;28;1384;-74
2022/06/15 15:37:46;;;;;;;;;;;;;;;;;;5020758;28;1392;-75
2022/06/15 15:40:13;;;;;;;;;;;;;;;;;;5023804;28;1429;-74
2022/06/15 15:42:40;;;;;;;;;;;;;;;;;;5036541;28;1130;-74
2022/06/15 15:45:07;;;;;;;;;;;;;;;;;;5032008;28;1968;-74
2022/06/15 15:47:34;;;;;;;;;;;;;;;;;;5013434;28;2176;-73
2022/06/15 15:50:01;;;;;;;;;;;;;;;;;;5027275;28;1385;-74
2022/06/15 15:52:27;;;;;;;;;;;;;;;;;;5014258;28;1378;-73
2022/06/15 15:54:53;;;;;;;;;;;;;;;;;;5014273;28;1423;-74
2022/06/15 15:57:20;;;;;;;;;;;;;;;;;;5017782;28;1411;-74
2022/06/15 15:59:47;;;;;;;;;;;;;;;;;;5036118;28;1429;-74
2022/06/15 16:02:15;;;;;;;;;;;;;;;;;;5023710;28;1479;-73
2022/06/15 16:04:42;;;;;;;;;;;;;;;;;;5035110;28;1918;-74
2022/06/15 16:07:09;;;;;;;;;;;;;;;;;;5028315;28;1406;-74
2022/06/15 16:09:36;;;;;;;;;;;;;;;;;;5018527;28;1440;-74
2022/06/15 16:12:04;;;;;;;;;;;;;;;;;;5041722;28;1181;-74
2022/06/15 16:14:30;;;;;;;;;;;;;;;;;;5031327;28;1664;-74
2022/06/15 16:16:56;;;;;;;;;;;;;;;;;;5037927;28;1692;-74
2022/06/15 16:19:23;;;;;;;;;;;;;;;;;;5043938;28;1161;-74
2022/06/15 16:21:50;;;;;;;;;;;;;;;;;;5050215;28;1302;-75
2022/06/15 16:24:17;;;;;;;;;;;;;;;;;;5051741;28;1981;-74
2022/06/15 16:26:43;;;;;;;;;;;;;;;;;;5051238;28;1008;-74
2022/06/15 16:29:09;;;;;;;;;;;;;;;;;;5051747;28;810;-75
2022/06/15 16:31:36;;;;;;;;;;;;;;;;;;5033800;28;1329;-74
2022/06/15 16:34:04;;;;;;;;;;;;;;;;;;5051805;28;1110;-74
2022/06/15 16:36:30;;;;;;;;;;;;;;;;;;5051434;28;1057;-74
2022/06/15 16:38:58;;;;;;;;;;;;;;;;;;5051601;28;905;-73
2022/06/15 16:41:25;;;;;;;;;;;;;;;;;;5033627;28;1402;-74
2022/06/15 16:43:53;;;;;;;;;;;;;;;;;;5051372;28;1115;-75
2022/06/15 16:46:20;;;;;;;;;;;;;;;;;;5051213;28;1914;-74
2022/06/15 16:48:46;;;;;;;;;;;;;;;;;;5051356;28;977;-74
2022/06/15 16:51:13;;;;;;;;;;;;;;;;;;5050965;28;1322;-74
2022/06/15 16:53:40;;;;;;;;;;;;;;;;;;5050988;28;886;-75
2022/06/15 16:56:09;;;;;;;;;;;;;;;;;;5050895;28;1131;-72
2022/06/15 16:58:36;;;;;;;;;;;;;;;;;;5049765;28;1526;-74
2022/06/15 17:01:02;;;;;;;;;;;;;;;;;;5030157;28;1548;-75
2022/06/15 17:03:28;;;;;;;;;;;;;;;;;;5030984;28;1049;-74
2022/06/15 17:05:59;;;;;;;;;;;;;;;;;;5036375;28;1923;-75
2022/06/15 17:08:26;;;;;;;;;;;;;;;;;;5037061;28;1538;-75
2022/06/15 17:10:52;;;;;;;;;;;;;;;;;;5022453;28;1489;-74
2022/06/15 17:13:20;;;;;;;;;;;;;;;;;;5043236;28;1146;-75
2022/06/15 17:15:47;;;;;;;;;;;;;;;;;;5050815;28;659;-75
2022/06/15 17:18:13;;;;;;;;;;;;;;;;;;5040709;28;1463;-74
2022/06/15 17:20:39;;;;;;;;;;;;;;;;;;5045996;28;1389;-74
2022/06/15 17:23:06;;;;;;;;;;;;;;;;;;5032988;28;1220;-75
2022/06/15 17:25:32;;;;;;;;;;;;;;;;;;5040022;28;2001;-75
2022/06/15 17:27:58;;;;;;;;;;;;;;;;;;5039981;28;1328;-75
2022/06/15 17:30:26;;;;;;;;;;;;;;;;;;5044131;28;1326;-76
2022/06/15 17:32:52;;;;;;;;;;;;;;;;;;5044706;28;1383;-75
2022/06/15 17:35:19;;;;;;;;;;;;;;;;;;5015861;28;1369;-75
2022/06/15 17:37:45;;;;;;;;;;;;;;;;;;5032157;28;1325;-75
2022/06/15 17:40:12;;;;;;;;;;;;;;;;;;5029667;28;1477;-75
2022/06/15 17:42:38;;;;;;;;;;;;;;;;;;5029489;28;1328;-75